createdAt,value
2023-05-10T00:01:06.979Z,98840.78
2023-05-10T00:03:33.478Z,98842.56
2023-05-10T00:05:59.964Z,98838.25
2023-05-10T00:08:26.443Z,98837.41
2023-05-10T00:10:52.809Z,98830.66
2023-05-10T00:13:19.480Z,98832.09
2023-05-10T00:15:45.953Z,98827.38
2023-05-10T00:18:12.385Z,98824.00
2023-05-10T00:20:39.236Z,98823.59
2023-05-10T00:23:05.632Z,98818.56
2023-05-10T00:25:32.707Z,98820.88
2023-05-10T00:28:01.417Z,98817.84
2023-05-10T00:30:28.020Z,98809.16
2023-05-10T00:32:54.526Z,98814.97
2023-05-10T00:35:21.090Z,98800.25
2023-05-10T00:37:47.580Z,98799.00
2023-05-10T00:40:14.104Z,98804.78
2023-05-10T00:42:40.670Z,98795.13
2023-05-10T00:45:07.059Z,98787.16
2023-05-10T00:47:33.564Z,98792.72
2023-05-10T00:50:02.239Z,98787.66
2023-05-10T00:52:28.797Z,98785.63
2023-05-10T00:54:55.406Z,98781.38
2023-05-10T00:57:21.995Z,98771.63
2023-05-10T00:59:48.508Z,98773.66
2023-05-10T01:02:14.903Z,98774.84
2023-05-10T01:04:41.358Z,98768.09
2023-05-10T01:07:08.080Z,98769.06
2023-05-10T01:09:34.465Z,98765.44
2023-05-10T01:12:01.013Z,98770.22
2023-05-10T01:14:28.331Z,98760.50
2023-05-10T01:16:54.759Z,98765.44
2023-05-10T01:19:21.291Z,98762.19
2023-05-10T01:21:47.980Z,98761.31
2023-05-10T01:24:14.303Z,98753.16
2023-05-10T01:26:42.778Z,98755.31
2023-05-10T01:29:09.165Z,98750.88
2023-05-10T01:31:35.609Z,98759.78
2023-05-10T01:34:02.162Z,98746.28
2023-05-10T01:36:28.650Z,98759.63
2023-05-10T01:38:55.379Z,98751.47
2023-05-10T01:41:22.013Z,98751.19
2023-05-10T01:43:48.619Z,98757.81
2023-05-10T01:46:15.745Z,98757.56
2023-05-10T01:48:45.651Z,98749.00
2023-05-10T01:51:12.201Z,98752.03
2023-05-10T01:53:38.623Z,98753.59
2023-05-10T01:56:05.023Z,98744.66
2023-05-10T01:58:31.501Z,98753.59
2023-05-10T02:01:00.227Z,98748.28
2023-05-10T02:03:26.694Z,98750.22
2023-05-10T02:05:53.123Z,98743.94
2023-05-10T02:08:19.620Z,98737.69
2023-05-10T02:10:46.038Z,98736.72
2023-05-10T02:13:12.508Z,98747.66
2023-05-10T02:15:38.930Z,98742.84
2023-05-10T02:18:05.403Z,98741.41
2023-05-10T02:20:31.914Z,98735.47
2023-05-10T02:22:58.382Z,98738.41
2023-05-10T02:25:24.848Z,98734.78
2023-05-10T02:27:51.360Z,98729.47
2023-05-10T02:30:18.008Z,98731.84
2023-05-10T02:32:45.097Z,98734.06
2023-05-10T02:35:11.573Z,98732.09
2023-05-10T02:37:38.228Z,98738.91
2023-05-10T02:40:04.877Z,98723.63
2023-05-10T02:42:31.312Z,98725.78
2023-05-10T02:44:58.099Z,98733.59
2023-05-10T02:47:24.535Z,98728.41
2023-05-10T02:49:51.074Z,98728.41
2023-05-10T02:52:17.457Z,98725.97
2023-05-10T02:54:43.882Z,98731.81
2023-05-10T02:57:10.577Z,98736.56
2023-05-10T02:59:37.473Z,98734.13
2023-05-10T03:02:04.857Z,98729.69
2023-05-10T03:04:31.468Z,98730.97
2023-05-10T03:06:58.155Z,98737.72
2023-05-10T03:09:24.737Z,98732.66
2023-05-10T03:11:51.266Z,98743.25
2023-05-10T03:14:17.712Z,98742.19
2023-05-10T03:16:45.132Z,98746.88
2023-05-10T03:19:11.860Z,98740.72
2023-05-10T03:21:38.442Z,98742.75
2023-05-10T03:24:04.872Z,98742.03
2023-05-10T03:26:31.279Z,98745.53
2023-05-10T03:28:57.638Z,98741.31
2023-05-10T03:31:24.066Z,98749.94
2023-05-10T03:34:02.391Z,98745.47
2023-05-10T03:36:28.794Z,98746.94
2023-05-10T03:38:55.192Z,98751.41
2023-05-10T03:41:21.623Z,98743.72
2023-05-10T03:43:48.114Z,98750.94
2023-05-10T03:46:14.511Z,98748.16
2023-05-10T03:48:43.387Z,98752.41
2023-05-10T03:51:09.780Z,98752.50
2023-05-10T03:53:36.196Z,98748.16
2023-05-10T03:56:02.546Z,98753.41
2023-05-10T03:58:28.973Z,98749.97
2023-05-10T04:00:55.342Z,98752.75
2023-05-10T04:03:21.915Z,98757.31
2023-05-10T04:05:49.476Z,98760.28
2023-05-10T04:08:16.026Z,98756.38
2023-05-10T04:10:42.446Z,98750.00
2023-05-10T04:13:09.095Z,98760.94
2023-05-10T04:15:35.654Z,98759.59
2023-05-10T04:18:02.093Z,98759.25
2023-05-10T04:20:28.925Z,98760.03
2023-05-10T04:22:55.270Z,98761.84
2023-05-10T04:25:21.811Z,98772.00
2023-05-10T04:27:48.447Z,98775.94
2023-05-10T04:30:16.000Z,98768.91
2023-05-10T04:32:42.583Z,98771.56
2023-05-10T04:35:09.196Z,98765.31
2023-05-10T04:37:35.592Z,98770.50
2023-05-10T04:40:02.043Z,98769.41
2023-05-10T04:42:28.434Z,98771.00
2023-05-10T04:44:54.912Z,98770.88
2023-05-10T04:47:21.478Z,98768.63
2023-05-10T04:49:47.911Z,98767.50
2023-05-10T04:52:14.341Z,98773.41
2023-05-10T04:54:41.205Z,98764.13
2023-05-10T04:57:07.579Z,98770.66
2023-05-10T04:59:35.456Z,98766.97
2023-05-10T05:02:01.937Z,98772.69
2023-05-10T05:04:28.548Z,98764.06
2023-05-10T05:06:55.256Z,98773.81
2023-05-10T05:09:22.846Z,98776.91
2023-05-10T05:11:49.665Z,98778.81
2023-05-10T05:14:16.119Z,98775.03
2023-05-10T05:16:43.021Z,98771.53
2023-05-10T05:19:09.441Z,98781.47
2023-05-10T05:21:35.826Z,98777.75
2023-05-10T05:24:02.276Z,98782.25
2023-05-10T05:26:28.672Z,98780.78
2023-05-10T05:28:55.430Z,98774.66
2023-05-10T05:31:22.011Z,98778.53
2023-05-10T05:33:48.471Z,98776.22
2023-05-10T05:36:15.284Z,98770.03
2023-05-10T05:38:41.762Z,98769.38
2023-05-10T05:41:08.152Z,98774.41
2023-05-10T05:43:37.470Z,98767.50
2023-05-10T05:46:04.897Z,98773.00
2023-05-10T05:48:31.472Z,98772.59
2023-05-10T05:50:57.869Z,98772.78
2023-05-10T05:53:24.615Z,98773.09
2023-05-10T05:55:51.046Z,98769.38
2023-05-10T05:58:18.316Z,98779.84
2023-05-10T06:00:45.896Z,98772.13
2023-05-10T06:03:14.922Z,98777.31
2023-05-10T06:05:41.423Z,98777.19
2023-05-10T06:08:07.964Z,98774.28
2023-05-10T06:10:34.799Z,98788.25
2023-05-10T06:13:01.489Z,98785.28
2023-05-10T06:15:30.886Z,98784.72
2023-05-10T06:18:00.189Z,98797.28
2023-05-10T06:20:27.634Z,98787.88
2023-05-10T06:22:54.067Z,98790.63
2023-05-10T06:25:20.515Z,98781.38
2023-05-10T06:27:50.975Z,98793.94
2023-05-10T06:30:19.392Z,98800.09
2023-05-10T06:32:45.831Z,98789.88
2023-05-10T06:35:12.255Z,98798.09
2023-05-10T06:37:38.792Z,98793.00
2023-05-10T06:40:07.234Z,98793.25
2023-05-10T06:42:33.726Z,98803.50
2023-05-10T06:45:00.167Z,98804.31
2023-05-10T06:47:26.703Z,98806.59
2023-05-10T06:49:53.181Z,98800.94
2023-05-10T06:52:19.605Z,98796.38
2023-05-10T06:54:45.976Z,98796.72
2023-05-10T06:57:23.402Z,98802.38
2023-05-10T06:59:57.581Z,98806.75
2023-05-10T07:02:24.070Z,98796.34
2023-05-10T07:04:50.797Z,98799.69
2023-05-10T07:07:17.303Z,98798.00
2023-05-10T07:09:43.727Z,98789.44
2023-05-10T07:12:12.131Z,98796.31
2023-05-10T07:14:39.935Z,98802.69
2023-05-10T07:17:06.284Z,98791.59
2023-05-10T07:19:32.797Z,98783.69
2023-05-10T07:21:59.380Z,98797.19
2023-05-10T07:24:25.811Z,98792.72
2023-05-10T07:26:52.249Z,98783.66
2023-05-10T07:29:18.731Z,98791.16
2023-05-10T07:31:45.144Z,98797.91
2023-05-10T07:34:11.722Z,98802.75
2023-05-10T07:36:38.146Z,98791.34
2023-05-10T07:39:05.118Z,98800.81
2023-05-10T07:41:31.516Z,98800.50
2023-05-10T07:43:57.879Z,98789.00
2023-05-10T07:46:24.433Z,98791.69
2023-05-10T07:48:51.010Z,98794.00
2023-05-10T07:51:17.876Z,98786.50
2023-05-10T07:53:44.211Z,98796.69
2023-05-10T07:56:10.946Z,98802.06
2023-05-10T07:58:37.309Z,98796.03
2023-05-10T08:01:03.733Z,98796.22
2023-05-10T08:03:30.178Z,98801.81
2023-05-10T08:05:56.599Z,98792.72
2023-05-10T08:08:23.182Z,98779.28
2023-05-10T08:10:49.584Z,98794.53
2023-05-10T08:13:16.175Z,98800.25
2023-05-10T08:15:43.066Z,98796.41
2023-05-10T08:18:09.672Z,98808.25
2023-05-10T08:20:37.520Z,98798.53
2023-05-10T08:23:03.917Z,98799.72
2023-05-10T08:25:30.449Z,98797.56
2023-05-10T08:27:56.988Z,98798.84
2023-05-10T08:30:23.392Z,98798.44
2023-05-10T08:32:50.045Z,98793.06
2023-05-10T08:35:16.709Z,98798.09
2023-05-10T08:37:45.902Z,98790.91
2023-05-10T08:40:12.282Z,98791.00
2023-05-10T08:42:38.675Z,98798.09
2023-05-10T08:45:05.077Z,98793.63
2023-05-10T08:47:31.702Z,98795.84
2023-05-10T08:49:58.104Z,98789.94
2023-05-10T08:52:24.528Z,98802.69
2023-05-10T08:54:51.484Z,98796.09
2023-05-10T08:57:18.868Z,98795.13
2023-05-10T08:59:45.296Z,98795.13
2023-05-10T09:02:11.672Z,98802.44
2023-05-10T09:04:38.174Z,98808.88
2023-05-10T09:07:04.645Z,98816.72
2023-05-10T09:09:31.094Z,98807.50
2023-05-10T09:11:57.517Z,98814.78
2023-05-10T09:14:26.233Z,98808.34
2023-05-10T09:16:53.244Z,98797.84
2023-05-10T09:19:20.051Z,98813.97
2023-05-10T09:21:46.466Z,98804.28
2023-05-10T09:24:12.848Z,98810.28
2023-05-10T09:26:39.260Z,98808.06
2023-05-10T09:29:05.637Z,98811.16
2023-05-10T09:31:32.108Z,98804.72
2023-05-10T09:33:58.498Z,98800.06
2023-05-10T09:36:24.951Z,98807.78
2023-05-10T09:38:51.339Z,98813.13
2023-05-10T09:41:18.037Z,98796.44
2023-05-10T09:43:44.463Z,98803.03
2023-05-10T09:46:10.871Z,98799.13
2023-05-10T09:48:37.292Z,98798.00
2023-05-10T09:51:04.040Z,98797.16
2023-05-10T09:53:30.764Z,98796.16
2023-05-10T09:55:57.540Z,98795.16
2023-05-10T09:58:24.317Z,98799.50
2023-05-10T10:00:50.781Z,98799.69
2023-05-10T10:03:17.579Z,98787.31
2023-05-10T10:05:44.132Z,98789.84
2023-05-10T10:08:10.644Z,98794.03
2023-05-10T10:10:36.991Z,98790.69
2023-05-10T10:13:03.388Z,98786.34
2023-05-10T10:15:30.125Z,98788.44
2023-05-10T10:17:56.556Z,98797.41
2023-05-10T10:20:23.275Z,98786.16
2023-05-10T10:22:49.674Z,98796.84
2023-05-10T10:25:16.451Z,98785.34
2023-05-10T10:27:43.196Z,98795.75
2023-05-10T10:30:09.671Z,98781.56
2023-05-10T10:32:36.120Z,98782.53
2023-05-10T10:35:03.640Z,98786.06
2023-05-10T10:37:29.959Z,98781.13
2023-05-10T10:39:57.424Z,98776.59
2023-05-10T10:42:23.887Z,98777.44
2023-05-10T10:44:50.314Z,98762.56
2023-05-10T10:47:17.159Z,98772.34
2023-05-10T10:49:44.069Z,98775.16
2023-05-10T10:52:10.738Z,98776.84
2023-05-10T10:54:37.476Z,98769.28
2023-05-10T10:57:03.868Z,98768.16
2023-05-10T10:59:30.228Z,98769.03
2023-05-10T11:01:57.206Z,98774.97
2023-05-10T11:04:23.646Z,98768.00
2023-05-10T11:06:50.394Z,98774.94
2023-05-10T11:09:16.835Z,98750.38
2023-05-10T11:11:43.251Z,98775.81
2023-05-10T11:14:09.947Z,98783.75
2023-05-10T11:16:36.385Z,98772.38
2023-05-10T11:19:02.897Z,98758.09
2023-05-10T11:21:29.360Z,98769.31
2023-05-10T11:23:55.748Z,98764.28
2023-05-10T11:26:22.159Z,98768.66
2023-05-10T11:28:55.910Z,98771.22
2023-05-10T11:31:22.751Z,98764.44
2023-05-10T11:33:49.200Z,98750.84
2023-05-10T11:36:15.577Z,98768.00
2023-05-10T11:38:41.975Z,98770.53
2023-05-10T11:41:08.356Z,98770.47
2023-05-10T11:43:34.710Z,98761.91
2023-05-10T11:46:01.094Z,98770.03
2023-05-10T11:48:27.578Z,98770.09
2023-05-10T11:50:53.991Z,98763.16
2023-05-10T11:53:20.756Z,98763.16
2023-05-10T11:55:47.059Z,98750.75
2023-05-10T11:58:13.466Z,98748.63
2023-05-10T12:00:39.952Z,98766.06
2023-05-10T12:03:06.493Z,98766.91
2023-05-10T12:05:33.113Z,98776.09
2023-05-10T12:07:59.567Z,98775.25
2023-05-10T12:10:26.197Z,98763.72
2023-05-10T12:12:52.898Z,98759.75
2023-05-10T12:15:19.289Z,98765.94
2023-05-10T12:17:45.778Z,98743.88
2023-05-10T12:20:12.241Z,98769.38
2023-05-10T12:22:38.679Z,98762.19
2023-05-10T12:25:05.053Z,98782.97
2023-05-10T12:27:31.549Z,98753.00
2023-05-10T12:29:58.083Z,98756.69
2023-05-10T12:32:24.650Z,98755.53
2023-05-10T12:34:51.099Z,98756.19
2023-05-10T12:37:17.876Z,98768.91
2023-05-10T12:39:44.377Z,98758.66
2023-05-10T12:42:10.784Z,98763.34
2023-05-10T12:44:37.136Z,98746.19
2023-05-10T12:47:03.527Z,98758.56
2023-05-10T12:49:29.927Z,98758.63
2023-05-10T12:51:56.283Z,98746.69
2023-05-10T12:54:22.825Z,98740.28
2023-05-10T12:56:49.242Z,98742.75
2023-05-10T12:59:15.655Z,98736.91
2023-05-10T13:01:42.386Z,98744.75
2023-05-10T13:04:08.963Z,98746.47
2023-05-10T13:06:35.358Z,98739.88
2023-05-10T13:09:01.784Z,98744.72
2023-05-10T13:11:28.231Z,98746.03
2023-05-10T13:13:54.847Z,98734.84
2023-05-10T13:16:21.338Z,98730.34
2023-05-10T13:18:47.758Z,98731.97
2023-05-10T13:21:14.147Z,98734.94
2023-05-10T13:23:40.546Z,98723.66
2023-05-10T13:26:06.885Z,98736.03
2023-05-10T13:28:33.300Z,98739.38
2023-05-10T13:30:59.747Z,98729.03
2023-05-10T13:33:26.154Z,98731.50
2023-05-10T13:35:54.411Z,98716.94
2023-05-10T13:38:22.526Z,98725.50
2023-05-10T13:40:49.060Z,98726.91
2023-05-10T13:43:15.416Z,98732.19
2023-05-10T13:45:41.818Z,98725.34
2023-05-10T13:48:08.289Z,98733.72
2023-05-10T13:50:34.753Z,98724.88
2023-05-10T13:53:02.352Z,98710.41
2023-05-10T13:55:28.737Z,98724.47
2023-05-10T13:57:55.616Z,98718.19
2023-05-10T14:00:22.326Z,98717.69
2023-05-10T14:02:48.786Z,98716.19
2023-05-10T14:05:16.988Z,98716.22
2023-05-10T14:07:44.687Z,98726.47
2023-05-10T14:10:11.092Z,98721.59
2023-05-10T14:12:44.841Z,98713.59
2023-05-10T14:15:11.198Z,98709.56
2023-05-10T14:17:39.064Z,98717.59
2023-05-10T14:20:05.559Z,98723.28
2023-05-10T14:22:32.315Z,98722.94
2023-05-10T14:24:58.797Z,98715.59
2023-05-10T14:27:25.162Z,98710.78
2023-05-10T14:29:51.692Z,98710.78
2023-05-10T14:32:18.359Z,98706.25
2023-05-10T14:34:44.929Z,98711.44
2023-05-10T14:37:11.299Z,98711.56
2023-05-10T14:39:37.918Z,98718.00
2023-05-10T14:42:04.319Z,98705.59
2023-05-10T14:44:30.794Z,98716.16
2023-05-10T14:46:57.481Z,98712.31
2023-05-10T14:49:23.904Z,98710.47
2023-05-10T14:51:50.700Z,98709.13
2023-05-10T14:54:17.060Z,98713.53
2023-05-10T14:56:44.504Z,98701.97
2023-05-10T14:59:10.929Z,98716.56
2023-05-10T15:01:38.186Z,98719.06
2023-05-10T15:04:05.019Z,98714.38
2023-05-10T15:06:31.962Z,98717.38
2023-05-10T15:08:58.350Z,98716.00
2023-05-10T15:11:24.910Z,98709.19
2023-05-10T15:13:52.770Z,98721.59
2023-05-10T15:16:19.358Z,98716.22
2023-05-10T15:18:45.810Z,98716.66
2023-05-10T15:21:12.348Z,98712.81
2023-05-10T15:23:38.741Z,98714.31
2023-05-10T15:26:05.534Z,98712.78
2023-05-10T15:28:33.060Z,98717.69
2023-05-10T15:31:00.940Z,98716.69
2023-05-10T15:33:27.393Z,98716.28
2023-05-10T15:35:53.828Z,98717.66
2023-05-10T15:38:20.288Z,98721.22
2023-05-10T15:40:47.073Z,98714.38
2023-05-10T15:43:13.587Z,98732.34
2023-05-10T15:45:40.123Z,98724.44
2023-05-10T15:48:09.253Z,98728.63
2023-05-10T15:50:35.931Z,98723.78
2023-05-10T15:53:02.423Z,98720.41
2023-05-10T15:55:29.020Z,98720.94
2023-05-10T15:57:55.660Z,98723.78
2023-05-10T16:00:22.101Z,98730.81
2023-05-10T16:02:48.570Z,98725.09
2023-05-10T16:05:15.734Z,98726.56
2023-05-10T16:07:42.344Z,98724.03
2023-05-10T16:10:08.862Z,98712.31
2023-05-10T16:12:36.563Z,98722.03
2023-05-10T16:15:03.610Z,98726.38
2023-05-10T16:17:31.325Z,98728.97
2023-05-10T16:19:58.754Z,98724.38
2023-05-10T16:22:25.677Z,98727.38
2023-05-10T16:24:52.877Z,98724.78
2023-05-10T16:27:20.002Z,98727.63
2023-05-10T16:29:46.944Z,98727.44
2023-05-10T16:32:15.385Z,98727.13
2023-05-10T16:34:42.337Z,98727.78
2023-05-10T16:37:09.816Z,98733.59
2023-05-10T16:39:36.817Z,98737.84
2023-05-10T16:42:05.988Z,98735.84
2023-05-10T16:44:33.031Z,98737.00
2023-05-10T16:47:00.159Z,98740.03
2023-05-10T16:49:28.207Z,98750.09
2023-05-10T16:51:55.316Z,98744.38
2023-05-10T16:54:22.625Z,98755.13
2023-05-10T16:56:52.049Z,98752.44
2023-05-10T16:59:20.058Z,98749.16
2023-05-10T17:01:47.338Z,98757.19
2023-05-10T17:04:14.479Z,98759.88
2023-05-10T17:06:41.780Z,98755.44
2023-05-10T17:09:08.969Z,98753.09
2023-05-10T17:11:37.308Z,98755.13
2023-05-10T17:14:04.869Z,98759.63
2023-05-10T17:16:32.028Z,98764.56
2023-05-10T17:18:59.391Z,98757.38
2023-05-10T17:21:26.616Z,98764.94
2023-05-10T17:23:53.714Z,98773.03
2023-05-10T17:26:21.360Z,98773.31
2023-05-10T17:28:48.459Z,98775.44
2023-05-10T17:31:15.616Z,98767.72
2023-05-10T17:33:43.088Z,98772.00
2023-05-10T17:36:13.239Z,98778.28
2023-05-10T17:38:40.576Z,98772.31
2023-05-10T17:41:10.373Z,98771.91
2023-05-10T17:43:38.041Z,98779.94
2023-05-10T17:46:05.268Z,98784.59
2023-05-10T17:48:32.518Z,98783.94
2023-05-10T17:50:59.740Z,98783.94
2023-05-10T17:53:27.575Z,98788.63
2023-05-10T17:55:54.900Z,98791.22
2023-05-10T17:58:23.462Z,98793.09
2023-05-10T18:00:51.291Z,98794.63
2023-05-10T18:03:18.517Z,98793.63
2023-05-10T18:05:46.311Z,98793.78
2023-05-10T18:08:13.615Z,98797.97
2023-05-10T18:10:41.456Z,98794.78
2023-05-10T18:13:09.088Z,98795.25
2023-05-10T18:15:39.676Z,98801.06
2023-05-10T18:18:07.955Z,98811.78
2023-05-10T18:20:35.276Z,98803.38
2023-05-10T18:23:02.493Z,98807.13
2023-05-10T18:25:31.877Z,98814.00
2023-05-10T18:28:00.320Z,98823.72
2023-05-10T18:30:27.915Z,98821.78
2023-05-10T18:32:55.731Z,98811.19
2023-05-10T18:35:25.058Z,98812.03
2023-05-10T18:37:54.624Z,98812.03
2023-05-10T18:40:22.045Z,98820.78
2023-05-10T18:42:49.339Z,98827.28
2023-05-10T18:45:16.848Z,98827.69
2023-05-10T18:47:44.443Z,98825.72
2023-05-10T18:50:13.821Z,98836.41
2023-05-10T18:52:41.111Z,98833.59
2023-05-10T18:55:08.423Z,98829.75
2023-05-10T18:57:35.677Z,98841.66
2023-05-10T19:00:02.900Z,98847.28
2023-05-10T19:02:30.882Z,98841.28
2023-05-10T19:04:58.146Z,98848.03
2023-05-10T19:07:25.393Z,98850.63
2023-05-10T19:09:52.671Z,98852.78
2023-05-10T19:12:19.898Z,98852.06
2023-05-10T19:14:48.174Z,98850.69
2023-05-10T19:17:15.521Z,98854.03
2023-05-10T19:19:44.615Z,98859.84
2023-05-10T19:22:13.342Z,98859.00
2023-05-10T19:24:40.796Z,98858.88
2023-05-10T19:27:08.113Z,98861.06
2023-05-10T19:29:35.358Z,98859.13
2023-05-10T19:32:04.117Z,98862.31
2023-05-10T19:34:31.485Z,98858.63
2023-05-10T19:36:59.598Z,98871.03
2023-05-10T19:39:27.908Z,98864.97
2023-05-10T19:41:55.240Z,98869.72
2023-05-10T19:44:25.346Z,98860.00
2023-05-10T19:46:55.609Z,98864.53
2023-05-10T19:49:22.932Z,98863.16
2023-05-10T19:51:51.324Z,98854.22
2023-05-10T19:54:18.529Z,98859.88
2023-05-10T19:56:46.700Z,98860.63
2023-05-10T19:59:13.985Z,98860.16
2023-05-10T20:01:42.165Z,98869.53
2023-05-10T20:04:09.735Z,98865.66
2023-05-10T20:06:37.516Z,98865.94
2023-05-10T20:09:05.396Z,98875.66
2023-05-10T20:11:32.670Z,98866.66
2023-05-10T20:14:00.971Z,98862.00
2023-05-10T20:16:28.234Z,98869.03
2023-05-10T20:18:55.561Z,98872.31
2023-05-10T20:21:22.799Z,98871.63
2023-05-10T20:23:50.180Z,98874.59
2023-05-10T20:26:17.409Z,98872.75
2023-05-10T20:28:47.626Z,98882.00
2023-05-10T20:31:16.850Z,98879.09
2023-05-10T20:33:45.706Z,98872.75
2023-05-10T20:36:12.952Z,98875.72
2023-05-10T20:38:40.412Z,98882.31
2023-05-10T20:41:08.209Z,98879.94
2023-05-10T20:43:35.804Z,98880.22
2023-05-10T20:46:04.516Z,98878.41
2023-05-10T20:48:32.852Z,98877.56
2023-05-10T20:51:02.167Z,98879.25
2023-05-10T20:53:29.459Z,98875.03
2023-05-10T20:55:56.742Z,98875.03
2023-05-10T20:58:27.131Z,98877.25
2023-05-10T21:00:54.826Z,98869.16
2023-05-10T21:03:21.235Z,98868.56
2023-05-10T21:05:47.774Z,98873.09
2023-05-10T21:08:14.312Z,98873.41
2023-05-10T21:10:40.832Z,98867.22
2023-05-10T21:13:07.238Z,98862.72
2023-05-10T21:15:33.573Z,98871.19
2023-05-10T21:18:02.488Z,98867.28
2023-05-10T21:20:29.033Z,98878.94
2023-05-10T21:22:55.513Z,98874.69
2023-05-10T21:25:22.914Z,98868.13
2023-05-10T21:27:49.570Z,98868.66
2023-05-10T21:30:16.275Z,98874.00
2023-05-10T21:32:42.973Z,98878.81
2023-05-10T21:35:09.446Z,98873.75
2023-05-10T21:37:36.156Z,98868.13
2023-05-10T21:40:02.673Z,98882.84
2023-05-10T21:42:29.262Z,98883.00
2023-05-10T21:44:56.926Z,98876.81
2023-05-10T21:47:23.327Z,98872.91
2023-05-10T21:49:49.713Z,98872.06
2023-05-10T21:52:16.102Z,98879.09
2023-05-10T21:54:42.821Z,98879.09
2023-05-10T21:57:09.498Z,98881.75
2023-05-10T21:59:35.852Z,98876.44
2023-05-10T22:02:03.294Z,98878.09
2023-05-10T22:04:31.006Z,98883.00
2023-05-10T22:06:57.538Z,98881.88
2023-05-10T22:09:24.498Z,98881.66
2023-05-10T22:11:51.284Z,98888.69
2023-05-10T22:14:17.750Z,98888.38
2023-05-10T22:16:45.044Z,98895.09
2023-05-10T22:19:11.651Z,98895.81
2023-05-10T22:21:38.178Z,98887.09
2023-05-10T22:24:04.920Z,98886.56
2023-05-10T22:26:31.267Z,98890.66
2023-05-10T22:28:57.986Z,98888.53
2023-05-10T22:31:24.592Z,98894.59
2023-05-10T22:33:51.042Z,98892.19
2023-05-10T22:36:17.797Z,98882.22
2023-05-10T22:38:44.235Z,98885.03
2023-05-10T22:41:10.725Z,98891.38
2023-05-10T22:43:37.361Z,98889.53
2023-05-10T22:46:04.835Z,98887.41
2023-05-10T22:48:31.340Z,98894.88
2023-05-10T22:50:57.781Z,98882.91
2023-05-10T22:53:24.954Z,98893.88
2023-05-10T22:55:51.449Z,98898.22
2023-05-10T22:58:19.310Z,98890.38
2023-05-10T23:00:45.737Z,98890.94
2023-05-10T23:03:12.150Z,98896.56
2023-05-10T23:05:38.582Z,98893.59
2023-05-10T23:08:05.641Z,98887.28
2023-05-10T23:10:32.107Z,98895.72
2023-05-10T23:12:58.532Z,98893.06
2023-05-10T23:15:25.106Z,98893.63
2023-05-10T23:17:51.897Z,98897.13
2023-05-10T23:20:18.763Z,98897.13
2023-05-10T23:22:45.505Z,98897.13
2023-05-10T23:25:12.208Z,98898.41
2023-05-10T23:27:38.674Z,98898.22
2023-05-10T23:30:05.298Z,98897.13
2023-05-10T23:32:32.702Z,98895.16
2023-05-10T23:34:59.377Z,98897.56
2023-05-10T23:37:28.382Z,98901.34
2023-05-10T23:39:57.910Z,98897.69
2023-05-10T23:42:24.556Z,98893.19
2023-05-10T23:44:52.081Z,98890.97
2023-05-10T23:49:45.128Z,98890.97
2023-05-10T23:52:11.730Z,98891.22
2023-05-10T23:57:05.581Z,98896.28
2023-05-10T23:59:32.645Z,98888.53
